Time;durP1;ratioP1;P1;durP2;ratioP2;P2;SDS_P1;SDS_P2;PMS_P1;PMS_P2;Temp;Humidity;BMP_temperature;BMP_pressure;BME280_temperature;BME280_humidity;BME280_pressure;Samples;Min_cycle;Max_cycle;Signal;HPM_P1;HPM_P2
2023/10/29 00:00:09;;;;;;;4.17;3.10;;;11.50;99.90;;;;;;5032438;28;20477;-63
2023/10/29 00:02:36;;;;;;;3.43;3.00;;;11.50;99.90;;;;;;5033213;28;21016;-64
2023/10/29 00:05:03;;;;;;;7.00;4.00;;;11.50;99.90;;;;;;5029000;28;20541;-64
2023/10/29 00:07:30;;;;;;;3.67;3.37;;;11.50;99.90;;;;;;5027365;28;20614;-64
2023/10/29 00:09:57;;;;;;;6.33;3.80;;;11.50;99.90;;;;;;5012315;28;20980;-64
2023/10/29 00:12:24;;;;;;;3.60;3.30;;;11.50;99.90;;;;;;5013423;28;20491;-64
2023/10/29 00:14:52;;;;;;;4.70;4.17;;;11.50;99.90;;;;;;5013150;28;20451;-64
2023/10/29 00:17:19;;;;;;;4.33;4.03;;;11.50;99.90;;;;;;5013819;28;20457;-64
2023/10/29 00:19:46;;;;;;;5.80;3.57;;;11.50;99.90;;;;;;5013511;28;20473;-64
2023/10/29 00:22:12;;;;;;;6.83;3.40;;;11.50;99.90;;;;;;5016126;28;20453;-64
2023/10/29 00:24:39;;;;;;;3.33;3.13;;;11.50;99.90;;;;;;5024832;28;20526;-64
2023/10/29 00:27:06;;;;;;;6.50;4.20;;;11.50;99.90;;;;;;5032989;28;20530;-64
2023/10/29 00:29:33;;;;;;;4.70;4.00;;;11.50;99.90;;;;;;5032743;28;20846;-64
2023/10/29 00:32:01;;;;;;;4.63;3.20;;;11.50;99.90;;;;;;5033521;28;20585;-64
2023/10/29 00:34:28;;;;;;;4.27;3.97;;;11.50;99.90;;;;;;5032923;28;20453;-64
2023/10/29 00:36:55;;;;;;;5.13;4.13;;;11.50;99.90;;;;;;5032693;28;20456;-64
2023/10/29 00:39:22;;;;;;;3.73;3.40;;;11.50;99.90;;;;;;5032723;28;20465;-64
2023/10/29 00:41:48;;;;;;;3.70;3.40;;;11.40;99.90;;;;;;5032677;28;20452;-64
2023/10/29 00:44:15;;;;;;;5.60;3.93;;;11.50;99.90;;;;;;5032788;28;20452;-64
2023/10/29 00:46:42;;;;;;;4.70;3.60;;;11.40;99.90;;;;;;5031372;28;20480;-64
2023/10/29 00:49:10;;;;;;;4.50;3.60;;;11.40;99.90;;;;;;5032033;28;20566;-64
2023/10/29 00:51:37;;;;;;;5.60;3.77;;;11.40;99.90;;;;;;5032301;28;20541;-64
2023/10/29 00:54:05;;;;;;;4.67;3.70;;;11.40;99.90;;;;;;5031914;28;20496;-64
2023/10/29 00:56:32;;;;;;;3.50;3.23;;;11.40;99.90;;;;;;5023854;28;21001;-64
2023/10/29 00:58:59;;;;;;;4.23;3.83;;;11.40;99.90;;;;;;5012656;28;20485;-64
2023/10/29 01:01:26;;;;;;;5.13;3.83;;;11.40;99.90;;;;;;5012039;28;20534;-64
2023/10/29 01:03:53;;;;;;;5.30;3.33;;;11.40;99.90;;;;;;5012071;28;20442;-64
2023/10/29 01:06:21;;;;;;;3.70;3.33;;;11.40;99.90;;;;;;5012203;28;20550;-64
2023/10/29 01:08:49;;;;;;;3.93;3.53;;;11.40;99.90;;;;;;5012177;28;20466;-64
2023/10/29 01:11:15;;;;;;;4.23;3.97;;;11.40;99.90;;;;;;5012043;28;20489;-64
2023/10/29 01:13:42;;;;;;;5.00;4.30;;;11.40;99.90;;;;;;5012402;28;20487;-64
2023/10/29 01:16:09;;;;;;;6.20;4.00;;;11.40;99.90;;;;;;5011903;28;20978;-64
2023/10/29 01:18:36;;;;;;;7.80;3.50;;;11.40;99.90;;;;;;5012367;28;20458;-64
2023/10/29 01:21:03;;;;;;;6.27;3.50;;;11.40;99.90;;;;;;5022979;28;20448;-64
2023/10/29 01:23:32;;;;;;;3.80;3.50;;;11.40;99.90;;;;;;5023588;28;20530;-64
2023/10/29 01:25:59;;;;;;;5.27;3.90;;;11.40;99.90;;;;;;5031193;28;20446;-64
2023/10/29 01:28:26;;;;;;;5.50;3.40;;;11.40;99.90;;;;;;5031978;28;20453;-64
2023/10/29 01:30:53;;;;;;;4.13;3.80;;;11.40;99.90;;;;;;5031790;28;20536;-64
2023/10/29 01:33:20;;;;;;;5.50;3.83;;;11.40;99.90;;;;;;5031602;28;20493;-64
2023/10/29 01:35:47;;;;;;;13.17;4.50;;;11.40;99.90;;;;;;5031454;28;20802;-64
2023/10/29 01:38:14;;;;;;;5.50;4.03;;;11.40;99.90;;;;;;5031651;28;20528;-64
2023/10/29 01:40:42;;;;;;;5.23;3.00;;;11.30;99.90;;;;;;5030269;28;20476;-64
2023/10/29 01:43:09;;;;;;;4.23;3.70;;;11.30;99.90;;;;;;5030533;28;20933;-64
2023/10/29 01:45:36;;;;;;;3.40;3.20;;;11.30;99.90;;;;;;5031071;28;20454;-64
2023/10/29 01:48:04;;;;;;;3.13;2.87;;;11.30;99.90;;;;;;5031328;28;20446;-64
2023/10/29 01:50:30;;;;;;;4.73;3.43;;;11.30;99.90;;;;;;5031030;28;20458;-64
2023/10/29 01:52:57;;;;;;;3.77;3.40;;;11.30;99.90;;;;;;5030671;28;20488;-64
2023/10/29 01:55:24;;;;;;;4.27;3.70;;;11.30;99.90;;;;;;5031138;28;20438;-64
2023/10/29 01:57:52;;;;;;;3.73;3.33;;;11.30;99.90;;;;;;5028406;28;20496;-64
2023/10/29 02:00:20;;;;;;;6.10;4.20;;;11.30;99.90;;;;;;5030501;28;20824;-64
2023/10/29 02:02:47;;;;;;;3.80;3.10;;;11.30;99.90;;;;;;5030876;28;20823;-63
2023/10/29 02:05:14;;;;;;;4.77;2.90;;;11.30;99.90;;;;;;5030851;28;20537;-64
2023/10/29 02:07:41;;;;;;;3.17;2.83;;;11.30;99.90;;;;;;5029454;28;20462;-64
2023/10/29 02:10:08;;;;;;;6.20;3.70;;;11.30;99.90;;;;;;5030704;28;20479;-64
2023/10/29 02:12:35;;;;;;;3.10;2.90;;;11.30;99.90;;;;;;5030447;28;20576;-64
2023/10/29 02:15:04;;;;;;;5.23;2.97;;;11.30;99.90;;;;;;5029358;28;20445;-64
2023/10/29 02:17:31;;;;;;;5.80;3.97;;;11.30;99.90;;;;;;5030143;28;20485;-64
2023/10/29 02:19:58;;;;;;;3.77;3.37;;;11.30;99.90;;;;;;5031100;28;20465;-64
2023/10/29 02:22:27;;;;;;;4.33;3.97;;;11.30;99.90;;;;;;5031637;28;20541;-64
2023/10/29 02:24:54;;;;;;;3.00;2.70;;;11.30;99.90;;;;;;5030952;28;20458;-63
2023/10/29 02:27:21;;;;;;;4.70;3.00;;;11.30;99.90;;;;;;5031435;28;20528;-64
2023/10/29 02:29:48;;;;;;;3.10;2.70;;;11.20;99.90;;;;;;5031274;28;20561;-64
2023/10/29 02:32:15;;;;;;;7.53;3.80;;;11.20;99.90;;;;;;5031001;28;20452;-64
2023/10/29 02:34:42;;;;;;;3.90;3.60;;;11.20;99.90;;;;;;5031079;28;20489;-64
2023/10/29 02:37:09;;;;;;;4.23;3.80;;;11.30;99.90;;;;;;5031006;28;20485;-64
2023/10/29 02:39:38;;;;;;;7.10;4.33;;;11.20;99.90;;;;;;5031044;28;20480;-64
2023/10/29 02:42:06;;;;;;;3.40;3.10;;;11.20;99.90;;;;;;5030940;28;20457;-64
2023/10/29 02:44:32;;;;;;;6.80;3.27;;;11.20;99.90;;;;;;5030454;28;20446;-64
2023/10/29 02:46:59;;;;;;;3.97;3.50;;;11.20;99.90;;;;;;5030044;28;20532;-64
2023/10/29 02:49:26;;;;;;;5.57;3.13;;;11.30;99.90;;;;;;5030541;28;20561;-64
2023/10/29 02:51:53;;;;;;;4.60;3.30;;;11.30;99.90;;;;;;5030499;28;20460;-64
2023/10/29 02:54:20;;;;;;;4.07;3.17;;;11.30;99.90;;;;;;5030640;28;20507;-64
2023/10/29 02:56:48;;;;;;;3.00;2.70;;;11.30;99.90;;;;;;5030572;28;20446;-64
2023/10/29 02:59:14;;;;;;;3.50;2.93;;;11.20;99.90;;;;;;5030750;28;20869;-64
2023/10/29 03:01:41;;;;;;;4.00;3.60;;;11.20;99.90;;;;;;5030569;28;20446;-64
2023/10/29 03:04:08;;;;;;;10.40;3.63;;;11.20;99.90;;;;;;5031149;28;20827;-64
2023/10/29 03:06:39;;;;;;;3.87;3.10;;;11.20;99.90;;;;;;5030695;28;20826;-64
2023/10/29 03:09:06;;;;;;;2.97;2.70;;;11.20;99.90;;;;;;5030803;28;20548;-64
2023/10/29 03:11:32;;;;;;;3.20;2.90;;;11.20;99.90;;;;;;5030786;28;20974;-64
2023/10/29 03:14:01;;;;;;;5.90;3.50;;;11.20;99.90;;;;;;5030616;28;20493;-64
2023/10/29 03:16:27;;;;;;;5.10;3.20;;;11.20;99.90;;;;;;5030607;28;20825;-64
2023/10/29 03:18:54;;;;;;;5.37;2.50;;;11.20;99.90;;;;;;5030639;28;20469;-64
2023/10/29 03:21:21;;;;;;;3.83;3.53;;;11.20;99.90;;;;;;5030615;28;20951;-64
2023/10/29 03:23:48;;;;;;;3.90;3.23;;;11.20;99.90;;;;;;5030586;28;20975;-64
2023/10/29 03:26:15;;;;;;;2.70;2.50;;;11.20;99.90;;;;;;5033006;28;20943;-64
2023/10/29 03:28:42;;;;;;;5.57;2.90;;;11.20;99.90;;;;;;5033992;28;20532;-63
2023/10/29 03:31:14;;;;;;;3.57;3.27;;;11.20;99.90;;;;;;5034450;28;20476;-64
2023/10/29 03:33:41;;;;;;;3.23;2.63;;;11.20;99.90;;;;;;5034083;28;20591;-64
2023/10/29 03:36:09;;;;;;;3.57;2.73;;;11.20;99.90;;;;;;5033932;28;20457;-64
2023/10/29 03:38:36;;;;;;;2.93;2.73;;;11.20;99.90;;;;;;5033900;28;20447;-64
2023/10/29 03:41:03;;;;;;;3.87;2.50;;;11.20;99.90;;;;;;5034166;28;20540;-63
2023/10/29 03:43:30;;;;;;;3.10;2.60;;;11.20;99.90;;;;;;5033947;28;20516;-63
2023/10/29 03:45:57;;;;;;;4.37;2.87;;;11.20;99.90;;;;;;5033720;28;20532;-64
2023/10/29 03:48:26;;;;;;;3.63;2.70;;;11.20;99.90;;;;;;5033920;28;20446;-63
2023/10/29 03:50:52;;;;;;;2.73;2.53;;;11.20;99.90;;;;;;5033862;28;20540;-64
2023/10/29 03:53:19;;;;;;;5.03;2.70;;;11.20;99.90;;;;;;5033821;28;20568;-63
2023/10/29 03:55:46;;;;;;;5.13;2.97;;;11.20;99.90;;;;;;5033388;28;21023;-64
2023/10/29 03:58:13;;;;;;;2.97;2.77;;;11.20;99.90;;;;;;5033780;28;20450;-63
2023/10/29 04:00:41;;;;;;;3.90;3.60;;;11.20;99.90;;;;;;5033423;28;20999;-64
2023/10/29 04:03:08;;;;;;;2.80;2.23;;;11.20;99.90;;;;;;5033712;28;20523;-64
2023/10/29 04:05:36;;;;;;;5.33;2.47;;;11.20;99.90;;;;;;5033214;28;20450;-64
2023/10/29 04:08:03;;;;;;;3.10;2.90;;;11.20;99.90;;;;;;5033697;28;20453;-64
2023/10/29 04:10:30;;;;;;;4.90;2.87;;;11.20;99.90;;;;;;5033344;28;20469;-64
2023/10/29 04:12:57;;;;;;;3.20;2.90;;;11.20;99.90;;;;;;5032988;28;20441;-64
2023/10/29 04:15:23;;;;;;;3.43;2.20;;;11.20;99.90;;;;;;5033398;28;20461;-64
2023/10/29 04:17:50;;;;;;;2.73;2.40;;;11.20;99.90;;;;;;5033353;28;20445;-64
2023/10/29 04:20:17;;;;;;;4.00;3.37;;;11.20;99.90;;;;;;5033294;28;21017;-64
2023/10/29 04:22:45;;;;;;;4.43;2.63;;;11.20;99.90;;;;;;5032511;28;20481;-64
2023/10/29 04:25:12;;;;;;;2.37;2.20;;;11.20;99.90;;;;;;5033294;28;20476;-63
2023/10/29 04:27:39;;;;;;;6.20;2.60;;;11.20;99.90;;;;;;5033225;28;20446;-64
2023/10/29 04:30:07;;;;;;;4.33;2.70;;;11.20;99.90;;;;;;5033288;28;20470;-64
2023/10/29 04:32:34;;;;;;;7.17;3.10;;;11.20;99.90;;;;;;5033389;28;20454;-64
2023/10/29 04:35:01;;;;;;;3.10;2.47;;;11.20;99.90;;;;;;5032937;28;20481;-64
2023/10/29 04:37:27;;;;;;;3.20;2.40;;;11.20;99.90;;;;;;5031937;28;20940;-64
2023/10/29 04:39:56;;;;;;;4.90;2.63;;;11.20;99.90;;;;;;5033052;28;20460;-64
2023/10/29 04:42:23;;;;;;;2.70;2.60;;;11.20;99.90;;;;;;5032996;28;20939;-64
2023/10/29 04:44:49;;;;;;;7.70;2.50;;;11.20;99.90;;;;;;5032774;28;20525;-64
2023/10/29 04:47:16;;;;;;;4.20;2.63;;;11.10;99.90;;;;;;5032694;28;20834;-64
2023/10/29 04:49:44;;;;;;;3.23;2.20;;;11.10;99.90;;;;;;5032661;28;20469;-64
2023/10/29 04:52:11;;;;;;;2.87;2.17;;;11.10;99.90;;;;;;5032854;28;20956;-64
2023/10/29 04:54:38;;;;;;;2.87;2.67;;;11.10;99.90;;;;;;5032581;28;20540;-64
2023/10/29 04:57:07;;;;;;;4.50;2.70;;;11.10;99.90;;;;;;5032714;28;20457;-63
2023/10/29 04:59:36;;;;;;;4.17;2.60;;;11.00;99.90;;;;;;5032580;28;20900;-64
2023/10/29 05:02:03;;;;;;;2.63;2.43;;;11.00;99.90;;;;;;5032771;28;20537;-64
2023/10/29 05:04:30;;;;;;;3.10;2.80;;;11.00;99.90;;;;;;5032462;28;21029;-64
2023/10/29 05:06:57;;;;;;;3.33;2.50;;;11.00;99.90;;;;;;5032733;28;20441;-63
2023/10/29 05:09:24;;;;;;;3.43;2.13;;;10.90;99.90;;;;;;5032295;28;20549;-64
2023/10/29 05:11:51;;;;;;;2.57;2.37;;;10.90;99.90;;;;;;5032652;28;20446;-64
2023/10/29 05:14:19;;;;;;;3.50;2.30;;;10.90;99.90;;;;;;5032191;28;20584;-63
2023/10/29 05:16:46;;;;;;;2.10;2.00;;;10.80;99.90;;;;;;5031812;28;20456;-64
2023/10/29 05:19:14;;;;;;;4.73;2.97;;;10.90;99.90;;;;;;5032138;28;21030;-64
2023/10/29 05:21:41;;;;;;;3.17;2.73;;;10.90;99.90;;;;;;5032319;28;20449;-64
2023/10/29 05:24:09;;;;;;;3.10;2.37;;;10.90;99.90;;;;;;5032516;28;20450;-63
2023/10/29 05:26:37;;;;;;;2.27;1.77;;;10.80;99.90;;;;;;5032036;28;20529;-64
2023/10/29 05:29:04;;;;;;;2.20;2.00;;;10.90;99.90;;;;;;5032358;28;20496;-63
2023/10/29 05:31:33;;;;;;;4.67;2.50;;;10.90;99.90;;;;;;5032105;28;21024;-64
2023/10/29 05:34:01;;;;;;;5.00;2.73;;;10.90;99.90;;;;;;5032384;28;20584;-64
2023/10/29 05:36:28;;;;;;;3.40;2.13;;;10.90;99.90;;;;;;5031745;28;20450;-64
2023/10/29 05:38:55;;;;;;;2.10;1.97;;;10.90;99.90;;;;;;5031959;28;20470;-64
2023/10/29 05:41:22;;;;;;;3.47;2.07;;;10.90;99.90;;;;;;5026776;28;20485;-63
2023/10/29 05:43:48;;;;;;;3.93;3.47;;;10.90;99.90;;;;;;5021581;28;20530;-64
2023/10/29 05:46:16;;;;;;;2.40;2.20;;;10.90;99.90;;;;;;5025572;28;20526;-64
2023/10/29 05:48:44;;;;;;;2.40;2.30;;;10.90;99.90;;;;;;5028676;28;20956;-64
2023/10/29 05:51:12;;;;;;;5.10;2.30;;;10.90;99.90;;;;;;5031491;28;20525;-64
2023/10/29 05:53:39;;;;;;;2.23;1.93;;;11.00;99.90;;;;;;5031627;28;20824;-63
2023/10/29 05:56:07;;;;;;;2.30;2.10;;;11.00;99.90;;;;;;5031445;28;20545;-63
2023/10/29 05:58:34;;;;;;;2.20;2.00;;;11.00;99.90;;;;;;5031443;28;20449;-64
2023/10/29 06:01:01;;;;;;;3.60;3.30;;;11.00;99.90;;;;;;5031639;28;20936;-63
2023/10/29 06:03:28;;;;;;;6.03;2.40;;;11.00;99.90;;;;;;5030759;28;20446;-64
2023/10/29 06:05:56;;;;;;;2.83;1.80;;;11.00;99.90;;;;;;5031070;28;20971;-64
2023/10/29 06:08:23;;;;;;;2.90;2.20;;;11.00;99.90;;;;;;5031148;28;20446;-64
2023/10/29 06:10:51;;;;;;;2.47;2.27;;;11.00;99.90;;;;;;5031294;28;20608;-63
2023/10/29 06:13:18;;;;;;;3.50;2.57;;;11.00;99.90;;;;;;5030999;28;20457;-63
2023/10/29 06:15:44;;;;;;;4.13;2.30;;;11.00;99.90;;;;;;5030900;28;20492;-63
2023/10/29 06:18:12;;;;;;;3.83;3.30;;;11.00;99.90;;;;;;5031586;28;21011;-63
2023/10/29 06:20:41;;;;;;;7.47;4.50;;;11.00;99.90;;;;;;5031609;28;20523;-64
2023/10/29 06:23:09;;;;;;;14.23;6.10;;;11.00;99.90;;;;;;5031389;28;20816;-64
2023/10/29 06:25:36;;;;;;;11.17;5.37;;;11.00;99.90;;;;;;5031026;28;20533;-64
2023/10/29 06:28:03;;;;;;;11.43;4.57;;;11.00;99.90;;;;;;5031531;28;20448;-64
2023/10/29 06:30:30;;;;;;;9.20;4.57;;;11.00;99.90;;;;;;5031424;28;20476;-64
2023/10/29 06:33:00;;;;;;;7.47;5.40;;;11.00;99.90;;;;;;5031367;28;21087;-64
2023/10/29 06:35:28;;;;;;;12.23;8.17;;;11.00;99.90;;;;;;5031243;28;20486;-64
2023/10/29 06:37:55;;;;;;;7.97;6.03;;;11.00;99.90;;;;;;5031608;28;20537;-63
2023/10/29 06:40:24;;;;;;;7.57;3.70;;;11.00;99.90;;;;;;5031254;28;20470;-64
2023/10/29 06:42:51;;;;;;;4.90;4.23;;;11.00;99.90;;;;;;5031630;28;20457;-64
2023/10/29 06:45:18;;;;;;;4.67;3.37;;;11.00;99.90;;;;;;5031005;28;20465;-64
2023/10/29 06:47:45;;;;;;;6.30;4.47;;;11.00;99.90;;;;;;5030124;28;20450;-64
2023/10/29 06:50:12;;;;;;;6.00;3.90;;;11.10;99.90;;;;;;5030393;28;20476;-64
2023/10/29 06:52:39;;;;;;;8.50;5.37;;;11.10;99.90;;;;;;5030961;28;20450;-64
2023/10/29 06:55:08;;;;;;;6.57;4.50;;;11.10;99.90;;;;;;5030725;28;20494;-64
2023/10/29 06:57:36;;;;;;;9.53;5.30;;;11.10;99.90;;;;;;5031160;28;20457;-64
2023/10/29 07:00:04;;;;;;;6.43;5.50;;;11.10;99.90;;;;;;5031990;28;20480;-63
2023/10/29 07:02:32;;;;;;;5.50;4.60;;;11.20;99.90;;;;;;5034871;28;20451;-63
2023/10/29 07:04:59;;;;;;;4.00;3.60;;;11.20;99.90;;;;;;5034697;28;20530;-64
2023/10/29 07:07:28;;;;;;;4.50;2.93;;;11.20;99.90;;;;;;5034797;28;20832;-64
2023/10/29 07:09:55;;;;;;;6.93;4.30;;;11.20;99.90;;;;;;5034934;28;20474;-64
2023/10/29 07:12:22;;;;;;;5.83;4.43;;;11.20;99.90;;;;;;5035028;28;20461;-64
2023/10/29 07:14:50;;;;;;;8.50;5.70;;;11.30;99.90;;;;;;5034494;28;20516;-64
2023/10/29 07:17:17;;;;;;;7.20;6.03;;;11.30;99.90;;;;;;5034866;28;20525;-64
2023/10/29 07:19:44;;;;;;;5.63;4.80;;;11.30;99.90;;;;;;5034429;28;20470;-64
2023/10/29 07:22:11;;;;;;;5.40;3.67;;;11.40;99.90;;;;;;5034687;28;20936;-63
2023/10/29 07:24:38;;;;;;;4.27;3.20;;;11.30;99.90;;;;;;5034407;28;20441;-64
2023/10/29 07:27:05;;;;;;;4.60;4.30;;;11.30;99.90;;;;;;5034340;28;20940;-64
2023/10/29 07:29:32;;;;;;;4.60;4.20;;;11.30;99.90;;;;;;5034172;28;20480;-64
2023/10/29 07:32:00;;;;;;;5.80;5.03;;;11.40;99.90;;;;;;5034517;28;20460;-64
2023/10/29 07:34:27;;;;;;;5.23;4.83;;;11.40;99.90;;;;;;5033922;28;20481;-64
2023/10/29 07:36:53;;;;;;;6.37;5.63;;;11.40;99.90;;;;;;5034355;28;20544;-64
2023/10/29 07:39:20;;;;;;;6.33;4.77;;;11.40;99.90;;;;;;5033834;28;20983;-63
2023/10/29 07:41:47;;;;;;;5.30;4.80;;;11.50;99.90;;;;;;5034217;28;20454;-64
2023/10/29 07:44:14;;;;;;;4.60;4.03;;;11.50;99.90;;;;;;5033380;28;20521;-63
2023/10/29 07:46:41;;;;;;;5.33;4.87;;;11.50;99.90;;;;;;5033202;28;20441;-64
2023/10/29 07:49:09;;;;;;;4.90;4.60;;;11.50;99.90;;;;;;5033935;28;20465;-64
2023/10/29 07:51:36;;;;;;;7.87;4.77;;;11.60;99.90;;;;;;5034034;28;20449;-64
2023/10/29 07:54:03;;;;;;;5.70;4.27;;;11.60;99.90;;;;;;5033854;28;20473;-64
2023/10/29 07:56:30;;;;;;;4.40;4.10;;;11.60;99.90;;;;;;5033269;28;20463;-64
2023/10/29 07:58:57;;;;;;;3.70;3.50;;;11.60;99.90;;;;;;5033236;28;20477;-64
2023/10/29 08:01:24;;;;;;;5.17;4.77;;;11.70;99.90;;;;;;5033528;28;20536;-64
2023/10/29 08:03:51;;;;;;;6.40;5.10;;;11.70;99.90;;;;;;5033437;28;20450;-64
2023/10/29 08:06:20;;;;;;;4.73;4.37;;;11.70;99.90;;;;;;5033287;28;20452;-64
2023/10/29 08:08:47;;;;;;;6.33;5.20;;;11.80;99.90;;;;;;5033204;28;20920;-65
2023/10/29 08:11:20;;;;;;;5.63;4.30;;;11.80;99.90;;;;;;5032667;28;20450;-64
2023/10/29 08:13:48;;;;;;;4.40;4.03;;;11.80;99.90;;;;;;5032386;28;20525;-64
2023/10/29 08:16:14;;;;;;;3.70;3.40;;;11.90;99.90;;;;;;5031849;28;20508;-64
2023/10/29 08:18:41;;;;;;;3.50;3.20;;;11.90;99.90;;;;;;5033157;28;20878;-64
2023/10/29 08:21:08;;;;;;;6.33;3.53;;;12.00;99.90;;;;;;5033434;28;20478;-64
2023/10/29 08:23:37;;;;;;;3.20;2.90;;;12.00;99.90;;;;;;5033055;28;20446;-64
2023/10/29 08:26:04;;;;;;;3.63;2.80;;;12.00;99.90;;;;;;5032979;28;20532;-64
2023/10/29 08:28:31;;;;;;;3.37;3.17;;;12.10;99.90;;;;;;5033208;28;20466;-64
2023/10/29 08:30:58;;;;;;;2.80;2.53;;;12.10;99.90;;;;;;5032940;28;21020;-65
2023/10/29 08:33:25;;;;;;;2.27;2.00;;;12.10;99.90;;;;;;5032904;28;20970;-64
2023/10/29 08:35:51;;;;;;;3.03;2.83;;;12.10;99.90;;;;;;5032644;28;20999;-64
2023/10/29 08:38:19;;;;;;;3.10;2.90;;;12.10;99.90;;;;;;5033018;28;20456;-65
2023/10/29 08:40:47;;;;;;;5.60;3.17;;;12.10;99.90;;;;;;5032665;28;20466;-64
2023/10/29 08:43:14;;;;;;;8.63;2.97;;;12.10;99.90;;;;;;5032682;28;20450;-64
2023/10/29 08:45:41;;;;;;;2.70;2.50;;;12.10;99.90;;;;;;5032701;28;20438;-64
2023/10/29 08:48:08;;;;;;;2.90;2.70;;;12.10;99.90;;;;;;5033133;28;20524;-64
2023/10/29 08:50:36;;;;;;;2.77;2.57;;;12.10;99.90;;;;;;5032635;28;20527;-65
2023/10/29 08:53:03;;;;;;;2.40;2.30;;;12.10;99.90;;;;;;5032584;28;20956;-64
2023/10/29 08:55:30;;;;;;;6.73;2.93;;;12.10;99.90;;;;;;5032462;28;20573;-65
2023/10/29 08:57:58;;;;;;;2.70;2.50;;;12.10;99.90;;;;;;5032370;28;20836;-65
2023/10/29 09:00:25;;;;;;;5.90;2.30;;;12.10;99.90;;;;;;5032250;28;20485;-65
2023/10/29 09:02:55;;;;;;;3.10;2.80;;;12.20;99.90;;;;;;5032587;28;20442;-65
2023/10/29 09:05:22;;;;;;;3.20;2.90;;;12.20;99.90;;;;;;5032265;28;20450;-65
2023/10/29 09:07:48;;;;;;;4.37;2.63;;;12.20;99.90;;;;;;5032431;28;20450;-65
2023/10/29 09:10:15;;;;;;;4.00;3.40;;;12.20;99.90;;;;;;5032251;28;21000;-65
2023/10/29 09:12:42;;;;;;;2.83;2.33;;;12.10;99.90;;;;;;5032820;28;20449;-64
2023/10/29 09:15:11;;;;;;;3.00;2.80;;;12.20;99.90;;;;;;5025198;28;21083;-64
2023/10/29 09:17:38;;;;;;;3.60;3.17;;;12.20;99.90;;;;;;5026575;28;20446;-65
2023/10/29 09:20:07;;;;;;;4.27;3.13;;;12.20;99.90;;;;;;5023016;28;21069;-64
2023/10/29 09:22:34;;;;;;;2.57;2.40;;;12.20;99.90;;;;;;5023823;28;20481;-65
2023/10/29 09:25:01;;;;;;;4.43;2.97;;;12.20;99.90;;;;;;5024249;28;20521;-65
2023/10/29 09:27:28;;;;;;;4.93;3.70;;;12.20;99.90;;;;;;5023670;28;20445;-64
2023/10/29 09:29:55;;;;;;;4.13;3.70;;;12.20;99.90;;;;;;5022482;28;20943;-64
2023/10/29 09:32:23;;;;;;;3.93;3.13;;;12.20;99.90;;;;;;5024343;28;20470;-64
2023/10/29 09:34:51;;;;;;;5.53;3.10;;;12.20;99.90;;;;;;5020394;28;20461;-64
2023/10/29 09:37:18;;;;;;;3.90;3.30;;;12.20;99.90;;;;;;5030692;28;20461;-64
2023/10/29 09:39:45;;;;;;;3.90;3.33;;;12.20;99.90;;;;;;5029184;28;20483;-65
2023/10/29 09:42:14;;;;;;;8.20;4.00;;;12.20;99.90;;;;;;5022911;28;20442;-64
2023/10/29 09:44:42;;;;;;;2.87;2.67;;;12.20;99.90;;;;;;5025497;28;20493;-65
2023/10/29 09:47:14;;;;;;;3.27;3.07;;;12.20;99.90;;;;;;5027040;28;20836;-65
2023/10/29 09:49:42;;;;;;;3.73;2.60;;;12.20;99.90;;;;;;5026203;28;20604;-64
2023/10/29 09:52:09;;;;;;;4.30;2.70;;;12.20;99.90;;;;;;5022336;28;20446;-65
2023/10/29 09:54:38;;;;;;;3.23;2.90;;;12.20;99.90;;;;;;5024393;28;20541;-64
2023/10/29 09:57:05;;;;;;;2.47;2.27;;;12.10;99.90;;;;;;5026253;28;20569;-64
2023/10/29 09:59:33;;;;;;;2.87;2.67;;;12.10;99.90;;;;;;5025860;28;21058;-64
2023/10/29 10:02:01;;;;;;;3.10;2.90;;;12.20;99.90;;;;;;5027531;28;20516;-64
2023/10/29 10:04:28;;;;;;;2.47;2.27;;;12.10;99.90;;;;;;5020305;28;20829;-64
2023/10/29 10:06:59;;;;;;;3.67;3.00;;;12.20;99.90;;;;;;5020540;28;20941;-64
2023/10/29 10:09:26;;;;;;;3.20;3.00;;;12.20;99.90;;;;;;5029671;28;20572;-64
2023/10/29 10:12:04;;;;;;;4.30;2.40;;;12.20;99.90;;;;;;5022380;28;20480;-64
2023/10/29 10:14:31;;;;;;;3.40;2.40;;;12.20;99.90;;;;;;5023448;28;20986;-64
2023/10/29 10:17:08;;;;;;;4.20;2.70;;;12.10;99.90;;;;;;5022012;28;21084;-64
2023/10/29 10:19:35;;;;;;;3.90;3.50;;;12.20;99.90;;;;;;5027843;28;20473;-64
2023/10/29 10:22:04;;;;;;;3.13;2.90;;;12.20;99.90;;;;;;5027455;28;20454;-64
2023/10/29 10:24:38;;;;;;;5.17;2.80;;;12.20;99.90;;;;;;5020928;28;20460;-64
2023/10/29 10:27:05;;;;;;;3.27;2.80;;;12.20;99.90;;;;;;5021677;28;20437;-64
2023/10/29 10:29:32;;;;;;;2.33;2.13;;;12.20;99.90;;;;;;5029523;28;20545;-64
2023/10/29 10:32:03;;;;;;;2.73;2.53;;;12.20;99.90;;;;;;5022872;28;20548;-64
2023/10/29 10:34:31;;;;;;;2.80;2.60;;;12.30;99.90;;;;;;5025334;28;20457;-64
2023/10/29 10:37:00;;;;;;;3.30;3.00;;;12.30;99.90;;;;;;5025092;28;20868;-64
2023/10/29 10:39:31;;;;;;;5.83;3.00;;;12.30;99.90;;;;;;5034821;28;20466;-64
2023/10/29 10:42:00;;;;;;;3.20;2.83;;;12.30;99.90;;;;;;5026432;28;20446;-64
2023/10/29 10:44:29;;;;;;;2.77;2.47;;;12.30;99.90;;;;;;5034715;28;20976;-64
2023/10/29 10:46:58;;;;;;;3.70;2.77;;;12.40;99.90;;;;;;5034758;28;20446;-64
2023/10/29 10:49:25;;;;;;;3.00;2.70;;;12.40;99.90;;;;;;5034769;28;20509;-65
2023/10/29 10:51:54;;;;;;;3.07;2.80;;;12.40;99.90;;;;;;5031259;28;20524;-64
2023/10/29 10:54:22;;;;;;;3.70;2.80;;;12.40;99.90;;;;;;5028204;28;20450;-64
2023/10/29 10:56:52;;;;;;;3.50;2.83;;;12.50;99.90;;;;;;5030775;28;20483;-64
2023/10/29 10:59:20;;;;;;;4.07;3.10;;;12.50;99.90;;;;;;5033996;28;20461;-64
2023/10/29 11:01:49;;;;;;;4.73;3.67;;;12.50;99.90;;;;;;5033984;28;20442;-64
2023/10/29 11:04:16;;;;;;;3.20;2.90;;;12.50;99.90;;;;;;5033797;28;20967;-64
2023/10/29 11:06:44;;;;;;;3.53;3.17;;;12.50;99.90;;;;;;5033718;28;20441;-65
2023/10/29 11:09:13;;;;;;;4.00;2.80;;;12.60;99.90;;;;;;5033886;28;20845;-65
2023/10/29 11:11:44;;;;;;;3.13;2.70;;;12.60;99.90;;;;;;5034563;28;20453;-65
2023/10/29 11:14:14;;;;;;;4.10;2.93;;;12.60;99.90;;;;;;5034324;28;20503;-65
2023/10/29 11:16:48;;;;;;;3.37;3.13;;;12.60;99.90;;;;;;5031884;28;20516;-65
2023/10/29 11:19:39;;;;;;;3.43;3.17;;;12.70;99.90;;;;;;5029451;28;20472;-64
2023/10/29 11:22:18;;;;;;;3.13;2.93;;;12.70;99.90;;;;;;5030403;28;20446;-65
2023/10/29 11:25:05;;;;;;;4.57;2.40;;;12.70;99.90;;;;;;5030304;28;20519;-64
2023/10/29 11:27:36;;;;;;;2.80;2.47;;;12.70;99.90;;;;;;5032464;28;20444;-65
2023/10/29 11:30:15;;;;;;;5.17;3.40;;;12.70;99.90;;;;;;5014919;28;20469;-65
2023/10/29 11:32:43;;;;;;;2.83;2.63;;;12.70;99.90;;;;;;5029956;28;20509;-65
2023/10/29 11:35:21;;;;;;;2.90;2.70;;;12.70;99.90;;;;;;5019672;28;20437;-65
2023/10/29 11:37:48;;;;;;;5.53;3.30;;;12.80;99.90;;;;;;5028538;28;20524;-65
2023/10/29 11:40:38;;;;;;;5.37;2.60;;;12.80;99.90;;;;;;5017443;28;20505;-64
2023/10/29 11:43:15;;;;;;;3.50;3.20;;;12.80;99.90;;;;;;5019729;28;20450;-65
2023/10/29 11:45:53;;;;;;;2.90;2.70;;;12.80;99.90;;;;;;5020967;28;20453;-65
2023/10/29 11:48:20;;;;;;;3.57;2.83;;;12.80;99.90;;;;;;5029715;28;20441;-65
2023/10/29 11:51:21;;;;;;;3.60;3.00;;;12.90;99.90;;;;;;5016785;28;20553;-65
2023/10/29 11:53:48;;;;;;;3.00;2.73;;;13.00;99.90;;;;;;5021015;28;20504;-65
2023/10/29 11:56:17;;;;;;;3.30;3.00;;;13.00;99.90;;;;;;5028423;28;20523;-65
2023/10/29 11:58:44;;;;;;;2.73;2.53;;;13.00;99.90;;;;;;5016311;28;20532;-65
2023/10/29 12:01:12;;;;;;;4.07;3.73;;;13.10;99.90;;;;;;5029242;28;20446;-65
2023/10/29 12:03:39;;;;;;;4.20;2.60;;;13.20;99.90;;;;;;5022038;28;20449;-65
2023/10/29 12:06:06;;;;;;;3.10;2.70;;;13.20;99.90;;;;;;5027398;28;20534;-65
2023/10/29 12:08:33;;;;;;;4.50;3.63;;;13.20;99.90;;;;;;5030850;28;20449;-64
2023/10/29 12:11:00;;;;;;;3.03;2.63;;;13.30;99.90;;;;;;5018508;28;20462;-64
2023/10/29 12:13:41;;;;;;;4.50;4.20;;;13.40;99.90;;;;;;5024759;28;20454;-65
2023/10/29 12:16:08;;;;;;;3.07;2.87;;;13.50;99.90;;;;;;5015682;28;20490;-65
2023/10/29 12:18:38;;;;;;;3.53;2.67;;;13.60;99.90;;;;;;5018098;28;20455;-64
2023/10/29 12:21:06;;;;;;;2.70;2.50;;;13.80;99.90;;;;;;5020032;28;20451;-64
2023/10/29 12:23:33;;;;;;;3.10;2.80;;;13.80;99.90;;;;;;5024249;28;20453;-65
2023/10/29 12:26:04;;;;;;;3.53;3.13;;;13.90;99.90;;;;;;5023533;28;20641;-65
2023/10/29 12:28:32;;;;;;;5.53;3.43;;;13.90;99.90;;;;;;5028500;28;20453;-64
2023/10/29 12:30:59;;;;;;;2.80;2.60;;;14.00;99.90;;;;;;5021226;28;20454;-65
2023/10/29 12:33:27;;;;;;;4.83;2.83;;;14.00;99.90;;;;;;5022910;28;20541;-65
2023/10/29 12:35:58;;;;;;;3.50;3.20;;;14.10;99.90;;;;;;5027350;28;20488;-65
2023/10/29 12:38:26;;;;;;;4.00;3.00;;;14.10;99.90;;;;;;5027346;28;20461;-65
2023/10/29 12:41:11;;;;;;;5.47;3.57;;;14.10;99.90;;;;;;5026685;28;20454;-65
2023/10/29 12:43:39;;;;;;;3.70;2.87;;;14.10;99.90;;;;;;5024132;28;20450;-64
2023/10/29 12:46:08;;;;;;;2.80;2.70;;;14.20;99.90;;;;;;5025898;28;20462;-65
2023/10/29 12:48:36;;;;;;;5.87;3.90;;;14.20;99.90;;;;;;5023218;28;20450;-65